SBOSBO SKB / TKPK
Speedbird OnlineSpeedbird Online SKB / TKPK

Robert L. Bradshaw International Airport
04:34 26.3°C

Location Basse Terre, Saint Kitts and Nevis
Latitude: 17.311199188232422
Longitude: -62.71870040893555
Web Wikipedia
Altitude 52 Meter / 170 Feet
Distance 6,642 KM / 4,127 Miles
from London.
Time Zone UTC -4 hours (America/St_Kitts)
Codes IATA: SKB
ICAO: TKPK
Currency £1 equals XCD 3.06
Runways
RunwayLength (m)Surface
072317Asphalt
252317Asphalt
Radio
TypeDescriptionFrequency
APPAPP119.6
GNDGND121.9
TWRTWR118.3
Live ATC
METAR TKPK 060000Z 08013KT 9999 BKN018 28/25 Q1014
TAF TAF TKPK 052300Z 0600/0624 08013KT 9999 SCT018
Weather As Of 06 Oct 2022 04:34
Description Broken clouds
Wind 35 km/h from East (80°)
Cloud Cover 78%
Precipitation Rain: none, Snow: none
Sunrise 06:01
Sunset 17:55
Rotations During the last 90 days there were
20 flights from ANU
24 flights to ANU


© 2017-2022 Speedbird Online